sensor_id;sensor_type;location;lat;lon;timestamp;P1;durP1;ratioP1;P2;durP2;ratioP2
18661;SDS011;61528;49.456;11.098;2023-02-28T00:00:31;3.90;;;2.33;;
18661;SDS011;61528;49.456;11.098;2023-02-28T00:02:57;4.27;;;2.10;;
18661;SDS011;61528;49.456;11.098;2023-02-28T00:05:24;3.30;;;2.13;;
18661;SDS011;61528;49.456;11.098;2023-02-28T00:07:51;3.60;;;2.10;;
18661;SDS011;61528;49.456;11.098;2023-02-28T00:10:21;4.47;;;2.57;;
18661;SDS011;61528;49.456;11.098;2023-02-28T00:12:49;4.77;;;2.23;;
18661;SDS011;61528;49.456;11.098;2023-02-28T00:15:15;3.60;;;2.07;;
18661;SDS011;61528;49.456;11.098;2023-02-28T00:17:43;3.63;;;2.30;;
18661;SDS011;61528;49.456;11.098;2023-02-28T00:20:10;3.27;;;2.10;;
18661;SDS011;61528;49.456;11.098;2023-02-28T00:22:46;4.20;;;2.23;;
18661;SDS011;61528;49.456;11.098;2023-02-28T00:25:13;3.50;;;2.33;;
18661;SDS011;61528;49.456;11.098;2023-02-28T00:27:40;3.77;;;2.07;;
18661;SDS011;61528;49.456;11.098;2023-02-28T00:30:08;4.63;;;2.53;;
18661;SDS011;61528;49.456;11.098;2023-02-28T00:32:35;3.53;;;2.30;;
18661;SDS011;61528;49.456;11.098;2023-02-28T00:35:04;4.53;;;2.03;;
18661;SDS011;61528;49.456;11.098;2023-02-28T00:37:30;3.33;;;2.17;;
18661;SDS011;61528;49.456;11.098;2023-02-28T00:39:57;3.90;;;2.60;;
18661;SDS011;61528;49.456;11.098;2023-02-28T00:42:23;5.07;;;2.50;;
18661;SDS011;61528;49.456;11.098;2023-02-28T00:44:50;5.13;;;2.40;;
18661;SDS011;61528;49.456;11.098;2023-02-28T00:47:18;3.80;;;2.40;;
18661;SDS011;61528;49.456;11.098;2023-02-28T00:49:45;4.33;;;2.37;;
18661;SDS011;61528;49.456;11.098;2023-02-28T00:52:11;3.57;;;2.27;;
18661;SDS011;61528;49.456;11.098;2023-02-28T00:54:37;4.00;;;2.43;;
18661;SDS011;61528;49.456;11.098;2023-02-28T00:57:04;4.97;;;2.90;;
18661;SDS011;61528;49.456;11.098;2023-02-28T00:59:30;3.83;;;2.40;;
18661;SDS011;61528;49.456;11.098;2023-02-28T01:01:56;3.70;;;2.13;;
18661;SDS011;61528;49.456;11.098;2023-02-28T01:04:22;5.20;;;2.60;;
18661;SDS011;61528;49.456;11.098;2023-02-28T01:06:48;2.83;;;2.17;;
18661;SDS011;61528;49.456;11.098;2023-02-28T01:09:15;4.50;;;2.70;;
18661;SDS011;61528;49.456;11.098;2023-02-28T01:11:41;3.80;;;2.43;;
18661;SDS011;61528;49.456;11.098;2023-02-28T01:14:11;3.83;;;2.37;;
18661;SDS011;61528;49.456;11.098;2023-02-28T01:16:38;3.30;;;2.20;;
18661;SDS011;61528;49.456;11.098;2023-02-28T01:19:04;4.13;;;2.33;;
18661;SDS011;61528;49.456;11.098;2023-02-28T01:21:30;5.70;;;2.50;;
18661;SDS011;61528;49.456;11.098;2023-02-28T01:23:57;4.77;;;2.70;;
18661;SDS011;61528;49.456;11.098;2023-02-28T01:26:23;3.93;;;2.53;;
18661;SDS011;61528;49.456;11.098;2023-02-28T01:28:50;3.13;;;2.47;;
18661;SDS011;61528;49.456;11.098;2023-02-28T01:31:17;3.33;;;2.80;;
18661;SDS011;61528;49.456;11.098;2023-02-28T01:33:44;3.10;;;2.10;;
18661;SDS011;61528;49.456;11.098;2023-02-28T01:36:14;3.97;;;2.60;;
18661;SDS011;61528;49.456;11.098;2023-02-28T01:38:41;5.00;;;2.83;;
18661;SDS011;61528;49.456;11.098;2023-02-28T01:41:07;4.40;;;2.70;;
18661;SDS011;61528;49.456;11.098;2023-02-28T01:46:10;5.13;;;2.80;;
18661;SDS011;61528;49.456;11.098;2023-02-28T01:48:38;4.07;;;2.97;;
18661;SDS011;61528;49.456;11.098;2023-02-28T01:51:06;5.47;;;2.80;;
18661;SDS011;61528;49.456;11.098;2023-02-28T01:53:36;3.53;;;2.53;;
18661;SDS011;61528;49.456;11.098;2023-02-28T01:56:06;3.43;;;2.67;;
18661;SDS011;61528;49.456;11.098;2023-02-28T01:58:34;4.13;;;2.67;;
18661;SDS011;61528;49.456;11.098;2023-02-28T02:01:02;3.93;;;2.43;;
18661;SDS011;61528;49.456;11.098;2023-02-28T02:03:29;5.60;;;2.57;;
18661;SDS011;61528;49.456;11.098;2023-02-28T02:05:56;5.97;;;2.70;;
18661;SDS011;61528;49.456;11.098;2023-02-28T02:08:23;4.03;;;2.33;;
18661;SDS011;61528;49.456;11.098;2023-02-28T02:10:52;3.67;;;2.57;;
18661;SDS011;61528;49.456;11.098;2023-02-28T02:13:23;3.67;;;2.70;;
18661;SDS011;61528;49.456;11.098;2023-02-28T02:15:55;4.57;;;2.37;;
18661;SDS011;61528;49.456;11.098;2023-02-28T02:18:34;3.30;;;2.40;;
18661;SDS011;61528;49.456;11.098;2023-02-28T02:34:09;4.37;;;2.77;;
18661;SDS011;61528;49.456;11.098;2023-02-28T02:36:42;3.00;;;2.67;;
18661;SDS011;61528;49.456;11.098;2023-02-28T02:41:58;3.77;;;2.50;;
18661;SDS011;61528;49.456;11.098;2023-02-28T02:44:27;3.63;;;2.77;;
18661;SDS011;61528;49.456;11.098;2023-02-28T02:47:00;3.87;;;3.10;;
18661;SDS011;61528;49.456;11.098;2023-02-28T02:49:30;3.20;;;2.53;;
18661;SDS011;61528;49.456;11.098;2023-02-28T02:51:57;5.67;;;3.10;;
18661;SDS011;61528;49.456;11.098;2023-02-28T02:54:28;4.83;;;3.17;;
18661;SDS011;61528;49.456;11.098;2023-02-28T02:56:57;5.07;;;2.73;;
18661;SDS011;61528;49.456;11.098;2023-02-28T02:59:24;6.13;;;3.13;;
18661;SDS011;61528;49.456;11.098;2023-02-28T03:01:53;4.37;;;2.97;;
18661;SDS011;61528;49.456;11.098;2023-02-28T03:04:21;6.17;;;3.30;;
18661;SDS011;61528;49.456;11.098;2023-02-28T03:06:48;6.07;;;3.23;;
18661;SDS011;61528;49.456;11.098;2023-02-28T03:09:20;6.77;;;3.63;;
18661;SDS011;61528;49.456;11.098;2023-02-28T03:11:46;6.07;;;3.03;;
18661;SDS011;61528;49.456;11.098;2023-02-28T03:14:20;5.27;;;3.00;;
18661;SDS011;61528;49.456;11.098;2023-02-28T03:19:27;5.27;;;2.93;;
18661;SDS011;61528;49.456;11.098;2023-02-28T03:22:01;5.03;;;3.50;;
18661;SDS011;61528;49.456;11.098;2023-02-28T03:24:34;5.93;;;3.30;;
18661;SDS011;61528;49.456;11.098;2023-02-28T03:27:07;3.77;;;3.30;;
18661;SDS011;61528;49.456;11.098;2023-02-28T03:29:37;4.73;;;3.33;;
18661;SDS011;61528;49.456;11.098;2023-02-28T03:32:08;4.63;;;3.40;;
18661;SDS011;61528;49.456;11.098;2023-02-28T03:34:41;4.10;;;3.07;;
18661;SDS011;61528;49.456;11.098;2023-02-28T03:37:10;4.93;;;3.30;;
18661;SDS011;61528;49.456;11.098;2023-02-28T03:39:42;4.90;;;2.87;;
18661;SDS011;61528;49.456;11.098;2023-02-28T03:42:18;5.10;;;2.97;;
18661;SDS011;61528;49.456;11.098;2023-02-28T03:44:52;5.50;;;3.50;;
18661;SDS011;61528;49.456;11.098;2023-02-28T03:50:00;5.60;;;3.70;;
18661;SDS011;61528;49.456;11.098;2023-02-28T03:52:27;7.17;;;3.60;;
18661;SDS011;61528;49.456;11.098;2023-02-28T03:54:56;6.37;;;3.83;;
18661;SDS011;61528;49.456;11.098;2023-02-28T03:59:59;4.57;;;3.60;;
18661;SDS011;61528;49.456;11.098;2023-02-28T04:02:27;6.97;;;4.23;;
18661;SDS011;61528;49.456;11.098;2023-02-28T04:04:53;5.33;;;4.10;;
18661;SDS011;61528;49.456;11.098;2023-02-28T04:07:19;6.10;;;4.20;;
18661;SDS011;61528;49.456;11.098;2023-02-28T04:09:46;5.83;;;3.93;;
18661;SDS011;61528;49.456;11.098;2023-02-28T04:12:12;9.80;;;4.43;;
18661;SDS011;61528;49.456;11.098;2023-02-28T04:14:38;6.80;;;4.30;;
18661;SDS011;61528;49.456;11.098;2023-02-28T04:17:05;7.00;;;4.47;;
18661;SDS011;61528;49.456;11.098;2023-02-28T04:19:31;6.57;;;4.00;;
18661;SDS011;61528;49.456;11.098;2023-02-28T04:21:57;4.37;;;3.40;;
18661;SDS011;61528;49.456;11.098;2023-02-28T04:24:24;5.70;;;3.77;;
18661;SDS011;61528;49.456;11.098;2023-02-28T04:26:51;5.57;;;3.90;;
18661;SDS011;61528;49.456;11.098;2023-02-28T04:29:22;6.00;;;3.97;;
18661;SDS011;61528;49.456;11.098;2023-02-28T04:31:49;5.80;;;4.10;;
18661;SDS011;61528;49.456;11.098;2023-02-28T04:34:15;6.50;;;3.37;;
18661;SDS011;61528;49.456;11.098;2023-02-28T04:36:44;8.10;;;4.50;;
18661;SDS011;61528;49.456;11.098;2023-02-28T04:39:11;5.37;;;3.97;;
18661;SDS011;61528;49.456;11.098;2023-02-28T04:41:37;5.43;;;4.03;;
18661;SDS011;61528;49.456;11.098;2023-02-28T04:44:04;4.53;;;3.70;;
18661;SDS011;61528;49.456;11.098;2023-02-28T04:46:30;6.27;;;4.47;;
18661;SDS011;61528;49.456;11.098;2023-02-28T04:48:56;6.30;;;4.07;;
18661;SDS011;61528;49.456;11.098;2023-02-28T04:51:23;6.13;;;4.00;;
18661;SDS011;61528;49.456;11.098;2023-02-28T04:53:49;6.73;;;3.93;;
18661;SDS011;61528;49.456;11.098;2023-02-28T04:56:16;6.50;;;3.57;;
18661;SDS011;61528;49.456;11.098;2023-02-28T04:58:43;7.07;;;4.10;;
18661;SDS011;61528;49.456;11.098;2023-02-28T05:01:19;4.63;;;3.67;;
18661;SDS011;61528;49.456;11.098;2023-02-28T05:03:46;5.77;;;4.13;;
18661;SDS011;61528;49.456;11.098;2023-02-28T05:06:13;5.50;;;3.90;;
18661;SDS011;61528;49.456;11.098;2023-02-28T05:08:39;5.60;;;3.73;;
18661;SDS011;61528;49.456;11.098;2023-02-28T05:11:07;4.23;;;3.50;;
18661;SDS011;61528;49.456;11.098;2023-02-28T05:13:38;5.07;;;3.67;;
18661;SDS011;61528;49.456;11.098;2023-02-28T05:16:05;5.97;;;4.03;;
18661;SDS011;61528;49.456;11.098;2023-02-28T05:18:31;6.30;;;3.77;;
18661;SDS011;61528;49.456;11.098;2023-02-28T05:20:57;6.73;;;4.13;;
18661;SDS011;61528;49.456;11.098;2023-02-28T05:23:23;5.83;;;3.60;;
18661;SDS011;61528;49.456;11.098;2023-02-28T05:25:50;6.80;;;4.00;;
18661;SDS011;61528;49.456;11.098;2023-02-28T05:28:17;5.50;;;4.17;;
18661;SDS011;61528;49.456;11.098;2023-02-28T05:30:44;5.83;;;3.80;;
18661;SDS011;61528;49.456;11.098;2023-02-28T05:33:11;6.67;;;4.50;;
18661;SDS011;61528;49.456;11.098;2023-02-28T05:35:40;8.23;;;4.47;;
18661;SDS011;61528;49.456;11.098;2023-02-28T05:38:07;7.80;;;4.87;;
18661;SDS011;61528;49.456;11.098;2023-02-28T05:40:34;5.87;;;4.57;;
18661;SDS011;61528;49.456;11.098;2023-02-28T05:43:00;7.10;;;4.10;;
18661;SDS011;61528;49.456;11.098;2023-02-28T05:45:29;7.60;;;3.77;;
18661;SDS011;61528;49.456;11.098;2023-02-28T05:47:56;7.13;;;4.73;;
18661;SDS011;61528;49.456;11.098;2023-02-28T05:50:22;6.87;;;4.67;;
18661;SDS011;61528;49.456;11.098;2023-02-28T05:52:49;5.67;;;4.13;;
18661;SDS011;61528;49.456;11.098;2023-02-28T05:55:15;5.87;;;4.10;;
18661;SDS011;61528;49.456;11.098;2023-02-28T05:57:42;6.37;;;4.27;;
18661;SDS011;61528;49.456;11.098;2023-02-28T06:00:09;5.57;;;4.07;;
18661;SDS011;61528;49.456;11.098;2023-02-28T06:02:35;6.90;;;4.53;;
18661;SDS011;61528;49.456;11.098;2023-02-28T06:05:01;10.50;;;4.87;;
18661;SDS011;61528;49.456;11.098;2023-02-28T06:07:27;9.43;;;4.63;;
18661;SDS011;61528;49.456;11.098;2023-02-28T06:09:54;6.47;;;4.27;;
18661;SDS011;61528;49.456;11.098;2023-02-28T06:12:20;7.67;;;4.50;;
18661;SDS011;61528;49.456;11.098;2023-02-28T06:14:46;7.03;;;3.90;;
18661;SDS011;61528;49.456;11.098;2023-02-28T06:17:12;6.93;;;4.33;;
18661;SDS011;61528;49.456;11.098;2023-02-28T06:19:38;7.83;;;4.80;;
18661;SDS011;61528;49.456;11.098;2023-02-28T06:22:06;8.30;;;5.27;;
18661;SDS011;61528;49.456;11.098;2023-02-28T06:24:32;5.97;;;4.40;;
18661;SDS011;61528;49.456;11.098;2023-02-28T06:26:58;7.27;;;4.50;;
18661;SDS011;61528;49.456;11.098;2023-02-28T06:29:30;8.87;;;4.70;;
18661;SDS011;61528;49.456;11.098;2023-02-28T06:31:56;6.80;;;4.07;;
18661;SDS011;61528;49.456;11.098;2023-02-28T06:34:23;6.23;;;4.33;;
18661;SDS011;61528;49.456;11.098;2023-02-28T06:36:50;6.33;;;4.53;;
18661;SDS011;61528;49.456;11.098;2023-02-28T06:39:17;10.47;;;5.00;;
18661;SDS011;61528;49.456;11.098;2023-02-28T06:41:43;7.90;;;4.67;;
18661;SDS011;61528;49.456;11.098;2023-02-28T06:44:15;7.87;;;4.93;;
18661;SDS011;61528;49.456;11.098;2023-02-28T06:46:42;8.13;;;4.57;;
18661;SDS011;61528;49.456;11.098;2023-02-28T06:49:09;7.53;;;4.60;;
18661;SDS011;61528;49.456;11.098;2023-02-28T06:51:36;9.07;;;4.97;;
18661;SDS011;61528;49.456;11.098;2023-02-28T06:54:04;10.53;;;4.90;;
18661;SDS011;61528;49.456;11.098;2023-02-28T06:56:30;8.07;;;4.70;;
18661;SDS011;61528;49.456;11.098;2023-02-28T06:58:56;8.83;;;5.40;;
18661;SDS011;61528;49.456;11.098;2023-02-28T07:01:23;7.10;;;4.47;;
18661;SDS011;61528;49.456;11.098;2023-02-28T07:03:49;7.60;;;4.83;;
18661;SDS011;61528;49.456;11.098;2023-02-28T07:06:26;8.93;;;5.07;;
18661;SDS011;61528;49.456;11.098;2023-02-28T07:08:53;11.83;;;5.20;;
18661;SDS011;61528;49.456;11.098;2023-02-28T07:11:19;10.20;;;5.47;;
18661;SDS011;61528;49.456;11.098;2023-02-28T07:13:47;13.07;;;5.60;;
18661;SDS011;61528;49.456;11.098;2023-02-28T07:16:14;10.87;;;5.37;;
18661;SDS011;61528;49.456;11.098;2023-02-28T07:18:40;9.20;;;6.15;;
18661;SDS011;61528;49.456;11.098;2023-02-28T07:21:08;8.80;;;5.47;;
18661;SDS011;61528;49.456;11.098;2023-02-28T07:23:35;8.63;;;5.27;;
18661;SDS011;61528;49.456;11.098;2023-02-28T07:26:03;8.20;;;4.90;;
18661;SDS011;61528;49.456;11.098;2023-02-28T07:28:29;8.70;;;5.17;;
18661;SDS011;61528;49.456;11.098;2023-02-28T07:30:56;6.57;;;4.47;;
18661;SDS011;61528;49.456;11.098;2023-02-28T07:33:22;8.13;;;5.07;;
18661;SDS011;61528;49.456;11.098;2023-02-28T07:35:49;8.20;;;4.90;;
18661;SDS011;61528;49.456;11.098;2023-02-28T07:38:15;7.37;;;4.97;;
18661;SDS011;61528;49.456;11.098;2023-02-28T07:40:42;6.80;;;5.40;;
18661;SDS011;61528;49.456;11.098;2023-02-28T07:43:08;6.93;;;5.00;;
18661;SDS011;61528;49.456;11.098;2023-02-28T07:45:34;8.90;;;5.10;;
18661;SDS011;61528;49.456;11.098;2023-02-28T07:48:00;6.97;;;5.00;;
18661;SDS011;61528;49.456;11.098;2023-02-28T07:50:27;10.43;;;6.37;;
18661;SDS011;61528;49.456;11.098;2023-02-28T07:52:56;8.97;;;5.60;;
18661;SDS011;61528;49.456;11.098;2023-02-28T07:55:22;9.80;;;5.43;;
18661;SDS011;61528;49.456;11.098;2023-02-28T07:57:48;11.37;;;5.67;;
18661;SDS011;61528;49.456;11.098;2023-02-28T08:00:14;8.20;;;5.47;;
18661;SDS011;61528;49.456;11.098;2023-02-28T08:02:41;9.77;;;5.63;;
18661;SDS011;61528;49.456;11.098;2023-02-28T08:05:07;9.40;;;4.87;;
18661;SDS011;61528;49.456;11.098;2023-02-28T08:07:34;9.60;;;6.10;;
18661;SDS011;61528;49.456;11.098;2023-02-28T08:10:00;7.43;;;5.07;;
18661;SDS011;61528;49.456;11.098;2023-02-28T08:12:26;9.73;;;5.97;;
18661;SDS011;61528;49.456;11.098;2023-02-28T08:14:52;8.57;;;5.70;;
18661;SDS011;61528;49.456;11.098;2023-02-28T08:17:18;10.57;;;6.90;;
18661;SDS011;61528;49.456;11.098;2023-02-28T08:19:45;8.87;;;5.80;;
18661;SDS011;61528;49.456;11.098;2023-02-28T08:22:11;8.27;;;5.50;;
18661;SDS011;61528;49.456;11.098;2023-02-28T08:24:38;10.27;;;5.80;;
18661;SDS011;61528;49.456;11.098;2023-02-28T08:27:07;8.93;;;5.10;;
18661;SDS011;61528;49.456;11.098;2023-02-28T08:29:33;7.97;;;5.47;;
18661;SDS011;61528;49.456;11.098;2023-02-28T08:31:59;8.27;;;6.00;;
18661;SDS011;61528;49.456;11.098;2023-02-28T08:34:26;11.40;;;5.83;;
18661;SDS011;61528;49.456;11.098;2023-02-28T08:36:52;8.40;;;5.30;;
18661;SDS011;61528;49.456;11.098;2023-02-28T08:39:22;11.37;;;6.20;;
18661;SDS011;61528;49.456;11.098;2023-02-28T08:41:48;8.30;;;5.57;;
18661;SDS011;61528;49.456;11.098;2023-02-28T08:44:14;8.03;;;5.93;;
18661;SDS011;61528;49.456;11.098;2023-02-28T08:46:40;9.83;;;5.77;;
18661;SDS011;61528;49.456;11.098;2023-02-28T08:49:06;13.63;;;6.07;;
18661;SDS011;61528;49.456;11.098;2023-02-28T08:51:34;9.67;;;6.60;;
18661;SDS011;61528;49.456;11.098;2023-02-28T08:54:01;9.40;;;6.30;;
18661;SDS011;61528;49.456;11.098;2023-02-28T08:56:28;10.17;;;6.37;;
18661;SDS011;61528;49.456;11.098;2023-02-28T08:58:56;10.17;;;6.30;;
18661;SDS011;61528;49.456;11.098;2023-02-28T09:01:23;9.30;;;5.93;;
18661;SDS011;61528;49.456;11.098;2023-02-28T09:03:50;10.13;;;6.23;;
18661;SDS011;61528;49.456;11.098;2023-02-28T09:06:18;8.43;;;5.87;;
18661;SDS011;61528;49.456;11.098;2023-02-28T09:08:44;11.20;;;5.83;;
18661;SDS011;61528;49.456;11.098;2023-02-28T09:11:11;11.47;;;6.27;;
18661;SDS011;61528;49.456;11.098;2023-02-28T09:13:39;8.90;;;5.80;;
18661;SDS011;61528;49.456;11.098;2023-02-28T09:16:07;8.47;;;5.70;;
18661;SDS011;61528;49.456;11.098;2023-02-28T09:18:34;8.30;;;5.87;;
18661;SDS011;61528;49.456;11.098;2023-02-28T09:21:05;8.43;;;5.80;;
18661;SDS011;61528;49.456;11.098;2023-02-28T09:23:32;9.73;;;6.43;;
18661;SDS011;61528;49.456;11.098;2023-02-28T09:25:58;9.47;;;5.70;;
18661;SDS011;61528;49.456;11.098;2023-02-28T09:28:24;6.53;;;5.43;;
18661;SDS011;61528;49.456;11.098;2023-02-28T09:30:52;10.10;;;6.43;;
18661;SDS011;61528;49.456;11.098;2023-02-28T09:33:19;10.20;;;6.23;;
18661;SDS011;61528;49.456;11.098;2023-02-28T09:35:46;7.73;;;5.90;;
18661;SDS011;61528;49.456;11.098;2023-02-28T09:38:13;9.23;;;5.80;;
18661;SDS011;61528;49.456;11.098;2023-02-28T09:40:45;8.00;;;5.40;;
18661;SDS011;61528;49.456;11.098;2023-02-28T09:43:13;9.43;;;6.20;;
18661;SDS011;61528;49.456;11.098;2023-02-28T09:45:42;9.37;;;5.93;;
18661;SDS011;61528;49.456;11.098;2023-02-28T09:48:14;8.50;;;5.57;;
18661;SDS011;61528;49.456;11.098;2023-02-28T09:50:44;8.20;;;5.60;;
18661;SDS011;61528;49.456;11.098;2023-02-28T09:56:11;8.40;;;5.17;;
18661;SDS011;61528;49.456;11.098;2023-02-28T09:58:41;10.43;;;6.80;;
18661;SDS011;61528;49.456;11.098;2023-02-28T10:03:46;12.37;;;6.07;;
18661;SDS011;61528;49.456;11.098;2023-02-28T10:06:14;7.97;;;5.23;;
18661;SDS011;61528;49.456;11.098;2023-02-28T10:09:04;7.97;;;5.40;;
18661;SDS011;61528;49.456;11.098;2023-02-28T10:11:29;8.40;;;5.40;;
18661;SDS011;61528;49.456;11.098;2023-02-28T10:14:00;6.80;;;5.33;;
18661;SDS011;61528;49.456;11.098;2023-02-28T10:16:36;7.50;;;5.13;;
18661;SDS011;61528;49.456;11.098;2023-02-28T10:24:11;7.63;;;4.70;;
18661;SDS011;61528;49.456;11.098;2023-02-28T10:26:40;7.90;;;5.30;;
18661;SDS011;61528;49.456;11.098;2023-02-28T10:29:08;8.27;;;5.60;;
18661;SDS011;61528;49.456;11.098;2023-02-28T10:31:34;6.27;;;4.47;;
18661;SDS011;61528;49.456;11.098;2023-02-28T10:34:00;9.63;;;5.73;;
18661;SDS011;61528;49.456;11.098;2023-02-28T10:36:28;7.37;;;5.20;;
18661;SDS011;61528;49.456;11.098;2023-02-28T10:38:54;8.13;;;5.37;;
18661;SDS011;61528;49.456;11.098;2023-02-28T10:41:31;7.07;;;5.27;;
18661;SDS011;61528;49.456;11.098;2023-02-28T10:46:58;6.50;;;4.90;;
18661;SDS011;61528;49.456;11.098;2023-02-28T10:49:26;7.97;;;5.50;;
18661;SDS011;61528;49.456;11.098;2023-02-28T10:52:00;7.20;;;4.43;;
18661;SDS011;61528;49.456;11.098;2023-02-28T10:54:28;7.60;;;5.20;;
18661;SDS011;61528;49.456;11.098;2023-02-28T10:57:05;7.30;;;5.00;;
18661;SDS011;61528;49.456;11.098;2023-02-28T10:59:32;7.53;;;4.80;;
18661;SDS011;61528;49.456;11.098;2023-02-28T11:01:58;8.63;;;5.40;;
18661;SDS011;61528;49.456;11.098;2023-02-28T11:07:36;8.20;;;5.40;;
18661;SDS011;61528;49.456;11.098;2023-02-28T11:09:45;9.93;;;5.27;;
18661;SDS011;61528;49.456;11.098;2023-02-28T11:15:02;6.23;;;4.97;;
18661;SDS011;61528;49.456;11.098;2023-02-28T11:17:30;7.80;;;5.30;;
18661;SDS011;61528;49.456;11.098;2023-02-28T11:19:58;6.67;;;5.20;;
18661;SDS011;61528;49.456;11.098;2023-02-28T11:22:28;8.93;;;5.53;;
18661;SDS011;61528;49.456;11.098;2023-02-28T11:24:57;7.43;;;4.87;;
18661;SDS011;61528;49.456;11.098;2023-02-28T11:27:46;6.57;;;4.83;;
18661;SDS011;61528;49.456;11.098;2023-02-28T11:30:31;6.87;;;5.30;;
18661;SDS011;61528;49.456;11.098;2023-02-28T11:32:59;7.77;;;5.40;;
18661;SDS011;61528;49.456;11.098;2023-02-28T11:37:51;6.67;;;4.53;;
18661;SDS011;61528;49.456;11.098;2023-02-28T11:40:18;10.43;;;5.20;;
18661;SDS011;61528;49.456;11.098;2023-02-28T11:48:06;8.10;;;5.27;;
18661;SDS011;61528;49.456;11.098;2023-02-28T11:53:35;7.00;;;4.53;;
18661;SDS011;61528;49.456;11.098;2023-02-28T11:56:08;6.30;;;4.90;;
18661;SDS011;61528;49.456;11.098;2023-02-28T12:04:03;7.23;;;5.00;;
18661;SDS011;61528;49.456;11.098;2023-02-28T12:22:28;7.10;;;5.10;;
18661;SDS011;61528;49.456;11.098;2023-02-28T12:25:01;7.80;;;5.63;;
18661;SDS011;61528;49.456;11.098;2023-02-28T12:27:29;7.47;;;5.20;;
18661;SDS011;61528;49.456;11.098;2023-02-28T12:30:13;8.07;;;6.03;;
18661;SDS011;61528;49.456;11.098;2023-02-28T12:32:41;8.33;;;5.80;;
18661;SDS011;61528;49.456;11.098;2023-02-28T12:37:40;7.73;;;5.90;;
18661;SDS011;61528;49.456;11.098;2023-02-28T12:40:21;7.73;;;6.03;;
18661;SDS011;61528;49.456;11.098;2023-02-28T12:42:56;6.53;;;5.80;;
18661;SDS011;61528;49.456;11.098;2023-02-28T12:45:24;6.03;;;5.23;;
18661;SDS011;61528;49.456;11.098;2023-02-28T12:47:59;7.20;;;5.57;;
18661;SDS011;61528;49.456;11.098;2023-02-28T12:50:28;8.17;;;5.83;;
18661;SDS011;61528;49.456;11.098;2023-02-28T12:55:35;6.93;;;5.83;;
18661;SDS011;61528;49.456;11.098;2023-02-28T13:03:39;6.43;;;5.80;;
18661;SDS011;61528;49.456;11.098;2023-02-28T13:08:53;6.27;;;5.67;;
18661;SDS011;61528;49.456;11.098;2023-02-28T13:11:27;7.47;;;6.23;;
18661;SDS011;61528;49.456;11.098;2023-02-28T13:13:58;7.80;;;5.43;;
18661;SDS011;61528;49.456;11.098;2023-02-28T13:16:25;6.93;;;5.57;;
18661;SDS011;61528;49.456;11.098;2023-02-28T13:18:51;7.70;;;6.47;;
18661;SDS011;61528;49.456;11.098;2023-02-28T13:21:24;7.20;;;6.20;;
18661;SDS011;61528;49.456;11.098;2023-02-28T13:28:58;7.70;;;6.47;;
18661;SDS011;61528;49.456;11.098;2023-02-28T13:31:25;7.67;;;6.00;;
18661;SDS011;61528;49.456;11.098;2023-02-28T13:36:30;7.73;;;6.93;;
18661;SDS011;61528;49.456;11.098;2023-02-28T13:44:03;8.73;;;6.57;;
18661;SDS011;61528;49.456;11.098;2023-02-28T13:46:31;8.33;;;6.63;;
18661;SDS011;61528;49.456;11.098;2023-02-28T13:49:17;8.27;;;6.23;;
18661;SDS011;61528;49.456;11.098;2023-02-28T13:51:47;7.20;;;6.37;;
18661;SDS011;61528;49.456;11.098;2023-02-28T13:54:25;7.60;;;6.40;;
18661;SDS011;61528;49.456;11.098;2023-02-28T14:02:09;9.33;;;7.00;;
18661;SDS011;61528;49.456;11.098;2023-02-28T14:04:45;7.60;;;6.50;;
18661;SDS011;61528;49.456;11.098;2023-02-28T14:07:18;6.90;;;5.83;;
18661;SDS011;61528;49.456;11.098;2023-02-28T14:09:48;8.50;;;6.73;;
18661;SDS011;61528;49.456;11.098;2023-02-28T14:15:01;7.73;;;6.60;;
18661;SDS011;61528;49.456;11.098;2023-02-28T14:17:27;7.87;;;6.43;;
18661;SDS011;61528;49.456;11.098;2023-02-28T14:19:54;8.10;;;6.70;;
18661;SDS011;61528;49.456;11.098;2023-02-28T14:25:11;9.43;;;6.63;;
18661;SDS011;61528;49.456;11.098;2023-02-28T14:37:51;9.37;;;6.10;;
18661;SDS011;61528;49.456;11.098;2023-02-28T14:40:30;10.63;;;7.10;;
18661;SDS011;61528;49.456;11.098;2023-02-28T14:42:59;7.20;;;6.27;;
18661;SDS011;61528;49.456;11.098;2023-02-28T14:45:25;9.50;;;6.40;;
18661;SDS011;61528;49.456;11.098;2023-02-28T14:47:54;7.67;;;6.07;;
18661;SDS011;61528;49.456;11.098;2023-02-28T14:50:26;10.50;;;6.90;;
18661;SDS011;61528;49.456;11.098;2023-02-28T14:52:53;9.37;;;6.60;;
18661;SDS011;61528;49.456;11.098;2023-02-28T14:55:26;10.07;;;7.17;;
18661;SDS011;61528;49.456;11.098;2023-02-28T14:57:56;9.37;;;6.73;;
18661;SDS011;61528;49.456;11.098;2023-02-28T15:00:24;10.57;;;7.47;;
18661;SDS011;61528;49.456;11.098;2023-02-28T15:02:50;8.67;;;7.20;;
18661;SDS011;61528;49.456;11.098;2023-02-28T15:05:25;9.47;;;6.90;;
18661;SDS011;61528;49.456;11.098;2023-02-28T15:11:00;11.87;;;7.47;;
18661;SDS011;61528;49.456;11.098;2023-02-28T15:13:30;8.93;;;7.20;;
18661;SDS011;61528;49.456;11.098;2023-02-28T15:16:22;9.47;;;7.20;;
18661;SDS011;61528;49.456;11.098;2023-02-28T15:18:48;8.93;;;7.23;;
18661;SDS011;61528;49.456;11.098;2023-02-28T15:21:15;9.80;;;7.13;;
18661;SDS011;61528;49.456;11.098;2023-02-28T15:23:43;8.70;;;7.13;;
18661;SDS011;61528;49.456;11.098;2023-02-28T15:26:15;8.27;;;7.00;;
18661;SDS011;61528;49.456;11.098;2023-02-28T15:28:42;10.33;;;7.47;;
18661;SDS011;61528;49.456;11.098;2023-02-28T15:31:19;10.27;;;6.80;;
18661;SDS011;61528;49.456;11.098;2023-02-28T15:33:57;10.37;;;7.60;;
18661;SDS011;61528;49.456;11.098;2023-02-28T15:36:28;8.70;;;6.87;;
18661;SDS011;61528;49.456;11.098;2023-02-28T15:38:56;10.33;;;7.20;;
18661;SDS011;61528;49.456;11.098;2023-02-28T15:41:24;9.47;;;7.13;;
18661;SDS011;61528;49.456;11.098;2023-02-28T15:44:13;8.53;;;6.63;;
18661;SDS011;61528;49.456;11.098;2023-02-28T15:46:39;10.23;;;7.47;;
18661;SDS011;61528;49.456;11.098;2023-02-28T15:49:12;9.47;;;6.87;;
18661;SDS011;61528;49.456;11.098;2023-02-28T15:51:43;9.23;;;6.33;;
18661;SDS011;61528;49.456;11.098;2023-02-28T15:54:15;9.27;;;6.70;;
18661;SDS011;61528;49.456;11.098;2023-02-28T15:56:46;9.63;;;6.70;;
18661;SDS011;61528;49.456;11.098;2023-02-28T15:59:15;11.20;;;7.17;;
18661;SDS011;61528;49.456;11.098;2023-02-28T16:01:43;8.07;;;6.10;;
18661;SDS011;61528;49.456;11.098;2023-02-28T16:04:17;7.70;;;6.73;;
18661;SDS011;61528;49.456;11.098;2023-02-28T16:09:22;10.53;;;6.67;;
18661;SDS011;61528;49.456;11.098;2023-02-28T16:11:49;9.00;;;7.27;;
18661;SDS011;61528;49.456;11.098;2023-02-28T16:20:14;10.73;;;7.13;;
18661;SDS011;61528;49.456;11.098;2023-02-28T16:22:40;8.50;;;6.57;;
18661;SDS011;61528;49.456;11.098;2023-02-28T16:25:08;8.33;;;7.27;;
18661;SDS011;61528;49.456;11.098;2023-02-28T16:27:36;9.63;;;7.10;;
18661;SDS011;61528;49.456;11.098;2023-02-28T16:30:04;9.17;;;6.40;;
18661;SDS011;61528;49.456;11.098;2023-02-28T16:32:32;11.53;;;7.40;;
18661;SDS011;61528;49.456;11.098;2023-02-28T16:35:00;10.33;;;6.93;;
18661;SDS011;61528;49.456;11.098;2023-02-28T16:37:27;9.00;;;6.57;;
18661;SDS011;61528;49.456;11.098;2023-02-28T16:39:53;10.07;;;7.03;;
18661;SDS011;61528;49.456;11.098;2023-02-28T16:42:26;10.63;;;7.60;;
18661;SDS011;61528;49.456;11.098;2023-02-28T16:44:54;11.57;;;7.50;;
18661;SDS011;61528;49.456;11.098;2023-02-28T16:47:21;7.60;;;6.30;;
18661;SDS011;61528;49.456;11.098;2023-02-28T16:49:47;9.90;;;6.70;;
18661;SDS011;61528;49.456;11.098;2023-02-28T16:52:14;10.17;;;6.77;;
18661;SDS011;61528;49.456;11.098;2023-02-28T16:54:41;8.07;;;6.20;;
18661;SDS011;61528;49.456;11.098;2023-02-28T16:57:15;8.97;;;6.93;;